Time;durP1;ratioP1;P1;durP2;ratioP2;P2;SDS_P1;SDS_P2;PMS_P1;PMS_P2;Temp;Humidity;BMP_temperature;BMP_pressure;BME280_temperature;BME280_humidity;BME280_pressure;Samples;Min_cycle;Max_cycle;Signal;HPM_P1;HPM_P2
2021/11/26 00:01:58;;;;;;;14.98;5.78;;;3.00;99.90;;;;;;5052288;28;20021;-92
2021/11/26 00:04:24;;;;;;;10.02;4.45;;;3.00;99.90;;;;;;5038301;28;20028;-92
2021/11/26 00:06:49;;;;;;;15.90;5.07;;;3.00;99.90;;;;;;5035229;28;20029;-93
2021/11/26 00:09:15;;;;;;;24.67;5.18;;;3.00;99.90;;;;;;5053310;28;20112;-92
2021/11/26 00:11:41;;;;;;;16.05;5.00;;;3.10;99.90;;;;;;5038658;28;20025;-92
2021/11/26 00:14:15;;;;;;;18.83;5.40;;;3.10;99.90;;;;;;5048080;28;20041;-93
2021/11/26 00:16:43;;;;;;;14.85;5.50;;;3.10;99.90;;;;;;5052972;28;20025;-93
2021/11/26 00:19:09;;;;;;;14.13;5.35;;;3.10;99.90;;;;;;5044927;28;20039;-92
2021/11/26 00:21:37;;;;;;;13.88;4.95;;;3.20;99.90;;;;;;5053271;28;20068;-91
2021/11/26 00:24:05;;;;;;;15.93;5.00;;;3.20;99.90;;;;;;5054283;28;20029;-92
2021/11/26 00:26:31;;;;;;;18.50;4.68;;;3.20;99.90;;;;;;5030732;28;20083;-92
2021/11/26 00:28:57;;;;;;;11.32;4.90;;;3.30;99.90;;;;;;5028265;28;20029;-92
2021/11/26 00:31:22;;;;;;;14.75;4.50;;;3.30;99.90;;;;;;5027191;28;20838;-91
2021/11/26 00:33:48;;;;;;;18.58;5.28;;;3.30;99.90;;;;;;5047692;28;20113;-91
2021/11/26 00:36:14;;;;;;;18.95;4.88;;;3.40;99.90;;;;;;5033564;28;20032;-92
2021/11/26 00:38:39;;;;;;;14.18;4.93;;;3.50;99.90;;;;;;5030800;28;20037;-91
2021/11/26 00:41:05;;;;;;;14.32;4.18;;;3.50;99.90;;;;;;5039609;28;20115;-93
2021/11/26 00:43:30;;;;;;;16.73;5.25;;;3.50;99.90;;;;;;5045836;28;20424;-94
2021/11/26 00:45:56;;;;;;;10.63;4.85;;;3.50;99.90;;;;;;5033459;28;20425;-93
2021/11/26 00:48:22;;;;;;;18.83;4.70;;;3.50;99.90;;;;;;5034888;28;20045;-93
2021/11/26 00:50:49;;;;;;;12.90;4.25;;;3.60;99.90;;;;;;5046752;28;20564;-92
2021/11/26 00:53:14;;;;;;;12.95;4.18;;;3.60;99.90;;;;;;5027432;28;20040;-92
2021/11/26 00:55:40;;;;;;;12.43;3.97;;;3.60;99.90;;;;;;5053310;28;20892;-92
2021/11/26 00:58:05;;;;;;;16.15;4.05;;;3.60;99.90;;;;;;5036617;28;20025;-91
2021/11/26 01:00:32;;;;;;;12.27;3.65;;;3.60;99.90;;;;;;5048571;28;20025;-92
2021/11/26 01:02:58;;;;;;;13.73;4.00;;;3.60;99.90;;;;;;5030332;28;20049;-92
2021/11/26 01:05:23;;;;;;;10.32;2.65;;;3.60;99.90;;;;;;5033467;28;20053;-93
2021/11/26 01:07:49;;;;;;;8.50;2.90;;;3.70;99.90;;;;;;5033280;28;20032;-92
2021/11/26 01:10:18;;;;;;;10.30;2.67;;;3.70;99.90;;;;;;5035790;28;20036;-92
2021/11/26 01:12:45;;;;;;;12.13;2.05;;;3.70;99.90;;;;;;5043196;28;20127;-93
2021/11/26 01:15:14;;;;;;;9.45;2.03;;;3.80;99.90;;;;;;5038382;28;20112;-92
2021/11/26 01:17:41;;;;;;;7.20;1.60;;;3.80;99.90;;;;;;5033211;28;20366;-92
2021/11/26 01:20:08;;;;;;;8.85;1.67;;;3.80;99.90;;;;;;5037396;28;20633;-92
2021/11/26 01:22:34;;;;;;;6.80;1.42;;;3.90;99.90;;;;;;5036198;28;20036;-91
2021/11/26 01:25:00;;;;;;;5.90;1.73;;;3.90;99.90;;;;;;5056254;28;20025;-91
2021/11/26 01:27:26;;;;;;;12.35;2.33;;;4.00;99.90;;;;;;5057590;28;20017;-92
2021/11/26 01:29:51;;;;;;;8.75;1.73;;;4.00;99.90;;;;;;5056281;28;20020;-90
2021/11/26 01:32:17;;;;;;;9.25;2.42;;;4.10;99.90;;;;;;5052162;28;20021;-91
2021/11/26 01:34:42;;;;;;;10.43;2.72;;;4.10;99.90;;;;;;5007079;28;20048;-91
2021/11/26 01:37:08;;;;;;;8.30;2.60;;;4.10;99.90;;;;;;5028856;28;20425;-92
2021/11/26 01:39:34;;;;;;;4.50;2.05;;;4.20;99.90;;;;;;5038936;28;20029;-91
2021/11/26 01:41:59;;;;;;;6.00;2.63;;;4.20;99.90;;;;;;5046971;28;20469;-92
2021/11/26 01:44:25;;;;;;;8.80;2.78;;;4.30;99.90;;;;;;5039113;28;20112;-93
2021/11/26 01:46:50;;;;;;;8.95;2.70;;;4.30;99.90;;;;;;5038605;28;20025;-95
2021/11/26 01:49:16;;;;;;;7.35;2.88;;;4.40;99.90;;;;;;5054697;28;20128;-93
2021/11/26 01:51:41;;;;;;;11.85;2.83;;;4.30;99.90;;;;;;5039552;28;20025;-93
2021/11/26 01:54:10;;;;;;;10.05;2.83;;;4.40;99.90;;;;;;5036672;28;20041;-93
2021/11/26 01:56:36;;;;;;;6.90;3.40;;;4.40;99.90;;;;;;5055963;28;20021;-92
2021/11/26 01:59:02;;;;;;;5.50;2.33;;;4.40;99.90;;;;;;5042105;28;20094;-92
2021/11/26 02:01:28;;;;;;;6.88;2.78;;;4.40;99.90;;;;;;5036724;28;20115;-93
2021/11/26 02:03:54;;;;;;;4.60;2.47;;;4.40;99.90;;;;;;5036910;28;20093;-92
2021/11/26 02:06:19;;;;;;;6.75;2.97;;;4.40;99.90;;;;;;5034798;28;20051;-94
2021/11/26 02:08:47;;;;;;;9.15;3.30;;;4.40;99.90;;;;;;5038179;28;20029;-95
2021/11/26 02:11:13;;;;;;;9.60;4.38;;;4.40;99.90;;;;;;5037170;28;20055;-94
2021/11/26 02:13:38;;;;;;;10.30;4.25;;;4.40;99.90;;;;;;5038730;28;20041;-94
2021/11/26 02:16:04;;;;;;;11.00;6.13;;;4.40;99.90;;;;;;5038799;28;20024;-93
2021/11/26 02:18:30;;;;;;;11.13;5.30;;;4.40;99.90;;;;;;5038148;28;20051;-95
2021/11/26 02:20:56;;;;;;;12.07;6.50;;;4.40;99.90;;;;;;5038409;28;20174;-94
2021/11/26 02:23:22;;;;;;;10.68;6.43;;;4.50;99.90;;;;;;5051874;28;20501;-94
2021/11/26 02:25:48;;;;;;;11.50;6.43;;;4.40;99.90;;;;;;5051202;28;20104;-94
2021/11/26 02:28:15;;;;;;;14.70;6.85;;;4.40;99.90;;;;;;5033099;28;20036;-94
2021/11/26 02:30:42;;;;;;;15.05;6.30;;;4.40;99.90;;;;;;5034274;28;20053;-94
2021/11/26 02:33:14;;;;;;;14.32;6.95;;;4.40;99.90;;;;;;5049321;28;20021;-92
2021/11/26 02:35:43;;;;;;;14.43;6.10;;;4.40;99.90;;;;;;5032964;28;20029;-93
2021/11/26 02:38:11;;;;;;;9.23;4.70;;;4.40;99.90;;;;;;5037489;28;20116;-94
2021/11/26 02:40:39;;;;;;;13.13;5.40;;;4.40;99.90;;;;;;5027691;28;20108;-94
2021/11/26 02:43:05;;;;;;;8.43;4.50;;;4.40;99.90;;;;;;5037149;28;20045;-94
2021/11/26 02:45:31;;;;;;;9.98;4.85;;;4.40;99.90;;;;;;5036088;28;20056;-95
2021/11/26 02:47:58;;;;;;;10.00;4.35;;;4.40;99.90;;;;;;5041765;28;20032;-94
2021/11/26 02:50:27;;;;;;;12.73;4.53;;;4.40;99.90;;;;;;5039924;28;20494;-94
2021/11/26 02:52:54;;;;;;;14.52;4.15;;;4.40;99.90;;;;;;5038820;28;20473;-94
2021/11/26 02:55:22;;;;;;;8.38;4.05;;;4.40;99.90;;;;;;5035870;28;20037;-94
2021/11/26 02:57:48;;;;;;;8.05;3.35;;;4.40;99.90;;;;;;5049573;28;20485;-94
2021/11/26 03:00:16;;;;;;;6.82;3.50;;;4.40;99.90;;;;;;5034498;28;20040;-94
2021/11/26 03:02:42;;;;;;;6.70;2.78;;;4.50;99.90;;;;;;5046066;28;20036;-94
2021/11/26 03:05:09;;;;;;;9.85;2.78;;;4.50;99.90;;;;;;5038181;28;20051;-92
2021/11/26 03:07:34;;;;;;;5.63;2.05;;;4.50;99.90;;;;;;5028884;28;20056;-94
2021/11/26 03:10:00;;;;;;;7.47;2.30;;;4.50;99.90;;;;;;5034908;28;20026;-92
2021/11/26 03:12:26;;;;;;;6.60;1.95;;;4.50;99.90;;;;;;5057425;28;20029;-93
2021/11/26 03:14:51;;;;;;;3.47;1.58;;;4.50;99.90;;;;;;5049488;28;20060;-94
2021/11/26 03:17:17;;;;;;;6.30;1.58;;;4.60;99.90;;;;;;5037443;28;20075;-94
2021/11/26 03:19:42;;;;;;;3.65;1.17;;;4.60;99.90;;;;;;5034850;28;20044;-94
2021/11/26 03:22:08;;;;;;;8.35;1.25;;;4.60;99.90;;;;;;5035384;28;20059;-93
2021/11/26 03:24:34;;;;;;;6.30;1.23;;;4.70;99.90;;;;;;5034621;28;20115;-93
2021/11/26 03:26:59;;;;;;;3.17;1.10;;;4.70;99.90;;;;;;5052510;28;20024;-93
2021/11/26 03:29:25;;;;;;;8.18;1.08;;;4.70;99.90;;;;;;5052737;28;20028;-94
2021/11/26 03:31:50;;;;;;;3.58;1.25;;;4.70;99.90;;;;;;5050413;28;20033;-93
2021/11/26 03:34:16;;;;;;;8.30;1.23;;;4.70;99.90;;;;;;5050684;28;20044;-94
2021/11/26 03:36:43;;;;;;;5.78;1.63;;;4.70;99.90;;;;;;5032970;28;20063;-94
2021/11/26 03:39:08;;;;;;;4.40;1.35;;;4.80;99.90;;;;;;5049750;28;20024;-94
2021/11/26 03:41:34;;;;;;;6.28;1.83;;;4.80;99.90;;;;;;5036397;28;20023;-94
2021/11/26 03:44:00;;;;;;;3.92;1.13;;;4.80;99.90;;;;;;5012695;28;20081;-93
2021/11/26 03:46:25;;;;;;;8.30;1.00;;;4.80;99.90;;;;;;5014631;28;20029;-92
2021/11/26 03:48:51;;;;;;;4.78;0.93;;;4.80;99.90;;;;;;5013510;28;20064;-93
2021/11/26 03:51:17;;;;;;;2.65;0.90;;;4.80;99.90;;;;;;5013383;28;20037;-93
2021/11/26 03:53:42;;;;;;;4.35;0.88;;;4.80;99.90;;;;;;5010621;28;20068;-93
2021/11/26 03:56:08;;;;;;;3.17;0.70;;;4.90;99.90;;;;;;4997914;28;20381;-94
2021/11/26 03:58:34;;;;;;;4.38;0.80;;;4.80;99.90;;;;;;5012429;28;20105;-94
2021/11/26 04:00:59;;;;;;;5.53;0.70;;;4.90;99.90;;;;;;5013341;28;20026;-92
2021/11/26 04:03:25;;;;;;;2.20;0.68;;;4.90;99.90;;;;;;5010017;28;20497;-94
2021/11/26 04:05:51;;;;;;;6.78;0.95;;;4.80;99.90;;;;;;5008898;28;20026;-94
2021/11/26 04:08:16;;;;;;;4.13;0.80;;;4.90;99.90;;;;;;5023033;28;20184;-95
2021/11/26 04:10:42;;;;;;;2.63;0.63;;;4.90;99.90;;;;;;4999106;28;20026;-94
2021/11/26 04:13:13;;;;;;;5.85;0.63;;;4.80;99.90;;;;;;5014122;28;20026;-93
2021/11/26 04:15:38;;;;;;;4.68;0.60;;;4.80;99.90;;;;;;5003118;28;20030;-93
2021/11/26 04:18:06;;;;;;;3.78;0.68;;;4.80;99.90;;;;;;5002922;28;20025;-92
2021/11/26 04:20:32;;;;;;;4.25;0.55;;;4.80;99.90;;;;;;5010680;28;20088;-93
2021/11/26 04:22:59;;;;;;;1.92;0.45;;;4.80;99.90;;;;;;5013489;28;20130;-93
2021/11/26 04:25:25;;;;;;;4.70;0.43;;;4.80;99.90;;;;;;4998517;28;20475;-92
2021/11/26 04:27:51;;;;;;;4.40;0.50;;;4.80;99.90;;;;;;5012011;28;20057;-95
2021/11/26 04:30:20;;;;;;;3.50;0.50;;;4.80;99.90;;;;;;5030462;28;20045;-95
2021/11/26 04:32:47;;;;;;;5.88;0.57;;;4.80;99.90;;;;;;5010731;28;20383;-94
2021/11/26 04:35:13;;;;;;;3.75;0.50;;;4.80;99.90;;;;;;5012542;28;20037;-94
2021/11/26 04:37:39;;;;;;;8.75;0.73;;;4.80;99.90;;;;;;5011955;28;20030;-92
2021/11/26 04:40:08;;;;;;;6.75;0.40;;;4.80;99.90;;;;;;5016999;28;20030;-93
2021/11/26 04:42:33;;;;;;;4.43;0.68;;;4.80;99.90;;;;;;5026149;28;20044;-95
2021/11/26 04:44:59;;;;;;;3.50;0.30;;;4.70;99.90;;;;;;5043649;28;20040;-93
2021/11/26 04:47:24;;;;;;;5.82;0.50;;;4.70;99.90;;;;;;5030357;28;20029;-93
2021/11/26 04:49:50;;;;;;;4.03;0.35;;;4.70;99.90;;;;;;5027944;28;20037;-93
2021/11/26 04:52:15;;;;;;;3.22;0.38;;;4.70;99.90;;;;;;5021705;28;20060;-93
2021/11/26 04:54:41;;;;;;;5.15;0.40;;;4.70;99.90;;;;;;5039106;28;20060;-94
2021/11/26 04:57:06;;;;;;;3.90;0.30;;;4.70;99.90;;;;;;5047368;28;20017;-94
2021/11/26 04:59:32;;;;;;;3.63;0.40;;;4.60;99.90;;;;;;5039480;28;20393;-92
2021/11/26 05:01:58;;;;;;;3.25;0.40;;;4.60;99.90;;;;;;5038222;28;20496;-95
2021/11/26 05:04:23;;;;;;;7.00;0.45;;;4.60;99.90;;;;;;5036186;28;20083;-93
2021/11/26 05:06:49;;;;;;;4.95;0.40;;;4.60;99.90;;;;;;5036812;28;21361;-94
2021/11/26 05:09:14;;;;;;;1.52;0.30;;;4.60;99.90;;;;;;5040253;28;20047;-94
2021/11/26 05:11:40;;;;;;;2.85;0.30;;;4.60;99.90;;;;;;5039677;28;20031;-94
2021/11/26 05:14:08;;;;;;;3.45;0.32;;;4.50;99.90;;;;;;5043792;28;20064;-94
2021/11/26 05:16:33;;;;;;;16.20;1.20;;;4.50;99.90;;;;;;5040257;28;20029;-94
2021/11/26 05:18:59;;;;;;;4.50;0.50;;;4.50;99.90;;;;;;5039440;28;20500;-94
2021/11/26 05:21:25;;;;;;;5.22;0.60;;;4.40;99.90;;;;;;5038341;28;20021;-93
2021/11/26 05:23:51;;;;;;;3.72;0.60;;;4.40;99.90;;;;;;5038274;28;20025;-93
2021/11/26 05:26:16;;;;;;;5.43;0.60;;;4.40;99.90;;;;;;5040302;28;20021;-93
2021/11/26 05:28:42;;;;;;;3.97;0.82;;;4.40;99.90;;;;;;5035751;28;20033;-94
2021/11/26 05:31:08;;;;;;;5.45;0.95;;;4.30;99.90;;;;;;5055187;28;20031;-93
2021/11/26 05:33:33;;;;;;;4.80;1.05;;;4.30;99.90;;;;;;5033421;28;20404;-92
2021/11/26 05:36:00;;;;;;;5.47;1.40;;;4.30;99.90;;;;;;5035154;28;20385;-91
2021/11/26 05:38:26;;;;;;;10.15;2.60;;;4.30;99.90;;;;;;5038253;28;20040;-92
2021/11/26 05:40:51;;;;;;;8.18;2.03;;;4.30;99.90;;;;;;5037201;28;20041;-93
2021/11/26 05:43:18;;;;;;;7.57;2.45;;;4.30;99.90;;;;;;5041709;28;20392;-92
2021/11/26 05:45:44;;;;;;;5.72;2.05;;;4.30;99.90;;;;;;5038579;28;20037;-93
2021/11/26 05:48:10;;;;;;;6.40;2.10;;;4.30;99.90;;;;;;5056938;28;20052;-93
2021/11/26 05:50:37;;;;;;;7.50;2.15;;;4.30;99.90;;;;;;5038756;28;20095;-93
2021/11/26 05:53:03;;;;;;;6.15;2.20;;;4.30;99.90;;;;;;5038592;28;20033;-92
2021/11/26 05:55:31;;;;;;;6.30;2.15;;;4.40;99.90;;;;;;5025810;28;20029;-92
2021/11/26 05:57:57;;;;;;;10.50;2.40;;;4.40;99.90;;;;;;5035095;28;20026;-93
2021/11/26 06:00:24;;;;;;;8.35;2.30;;;4.40;99.90;;;;;;5031976;28;20035;-93
2021/11/26 06:02:50;;;;;;;9.55;2.15;;;4.50;99.90;;;;;;5030061;28;20025;-93
2021/11/26 06:05:16;;;;;;;8.90;1.80;;;4.50;99.90;;;;;;5032008;28;20111;-93
2021/11/26 06:07:42;;;;;;;10.82;2.00;;;4.60;99.90;;;;;;5032240;28;20021;-94
2021/11/26 06:10:11;;;;;;;7.47;1.73;;;4.60;99.90;;;;;;5034646;28;20028;-94
2021/11/26 06:12:47;;;;;;;9.35;2.25;;;4.60;99.90;;;;;;5031475;28;20108;-93
2021/11/26 06:15:14;;;;;;;9.57;2.97;;;4.60;99.90;;;;;;5036309;28;20033;-93
2021/11/26 06:17:42;;;;;;;10.32;2.45;;;4.60;99.90;;;;;;5034226;28;20056;-93
2021/11/26 06:20:10;;;;;;;8.02;1.80;;;4.60;99.90;;;;;;5029179;28;20485;-92
2021/11/26 06:22:35;;;;;;;8.15;2.00;;;4.60;99.90;;;;;;5036923;28;20051;-93
2021/11/26 06:25:01;;;;;;;7.53;2.60;;;4.60;99.90;;;;;;5032652;28;20044;-92
2021/11/26 06:27:27;;;;;;;11.60;2.33;;;4.50;99.90;;;;;;5032970;28;20503;-92
2021/11/26 06:29:52;;;;;;;9.77;3.13;;;4.50;99.90;;;;;;5032282;28;20033;-92
2021/11/26 06:32:18;;;;;;;9.93;3.35;;;4.50;99.90;;;;;;5031028;28;20039;-92
2021/11/26 06:34:43;;;;;;;14.10;3.78;;;4.40;99.90;;;;;;5035060;28;20037;-91
2021/11/26 06:37:09;;;;;;;11.10;3.20;;;4.50;99.90;;;;;;5034364;28;20104;-93
2021/11/26 06:39:35;;;;;;;12.90;3.58;;;4.50;99.90;;;;;;5035036;28;20533;-92
2021/11/26 06:42:01;;;;;;;11.70;3.03;;;4.60;99.90;;;;;;5035178;28;20052;-94
2021/11/26 06:44:26;;;;;;;11.05;3.30;;;4.70;99.90;;;;;;5028867;28;20030;-92
2021/11/26 06:46:52;;;;;;;9.60;3.15;;;4.70;99.90;;;;;;5028944;28;20373;-92
2021/11/26 06:49:18;;;;;;;10.98;3.88;;;4.70;99.90;;;;;;5031706;28;20034;-91
2021/11/26 06:51:43;;;;;;;11.65;4.15;;;4.70;99.90;;;;;;5029596;28;20025;-93
2021/11/26 06:54:09;;;;;;;13.10;4.55;;;4.70;99.90;;;;;;5031370;28;20037;-93
2021/11/26 06:56:34;;;;;;;16.48;4.45;;;4.70;99.90;;;;;;5045368;28;20045;-92
2021/11/26 06:59:02;;;;;;;10.25;5.18;;;4.70;99.90;;;;;;5026178;28;20112;-93
2021/11/26 07:01:27;;;;;;;18.58;5.90;;;4.60;99.90;;;;;;5032636;28;20050;-93
2021/11/26 07:03:54;;;;;;;18.23;5.70;;;4.60;99.90;;;;;;5034364;28;20415;-92
2021/11/26 07:06:21;;;;;;;13.23;6.28;;;4.50;99.90;;;;;;5030302;28;20024;-94
2021/11/26 07:08:47;;;;;;;17.52;7.70;;;4.50;99.90;;;;;;5038182;28;20048;-94
2021/11/26 07:11:12;;;;;;;21.83;7.38;;;4.50;99.90;;;;;;5035668;28;20028;-91
2021/11/26 07:13:38;;;;;;;17.20;7.60;;;4.40;99.90;;;;;;5040655;28;20048;-92
2021/11/26 07:16:04;;;;;;;16.98;7.35;;;4.40;99.90;;;;;;5024506;28;20111;-93
2021/11/26 07:18:29;;;;;;;25.80;9.45;;;4.40;99.90;;;;;;5029794;28;20489;-93
2021/11/26 07:20:55;;;;;;;21.80;8.05;;;4.40;99.90;;;;;;5032520;28;20029;-94
2021/11/26 07:23:20;;;;;;;20.17;8.13;;;4.40;99.90;;;;;;5033142;28;20021;-94
2021/11/26 07:25:46;;;;;;;21.63;7.03;;;4.40;99.90;;;;;;5039221;28;20060;-92
2021/11/26 07:28:12;;;;;;;20.63;7.53;;;4.40;99.90;;;;;;5039963;28;20491;-90
2021/11/26 07:30:39;;;;;;;23.83;7.88;;;4.40;99.90;;;;;;5033895;28;20400;-92
2021/11/26 07:33:05;;;;;;;20.20;7.35;;;4.40;99.90;;;;;;5033142;28;20028;-91
2021/11/26 07:35:31;;;;;;;17.58;7.63;;;4.40;99.90;;;;;;5043314;28;20025;-92
2021/11/26 07:37:57;;;;;;;18.50;6.50;;;4.30;99.90;;;;;;5040869;28;20108;-93
2021/11/26 07:40:22;;;;;;;22.23;7.22;;;4.40;99.90;;;;;;5030235;28;20021;-93
2021/11/26 07:42:48;;;;;;;21.60;7.05;;;4.40;99.90;;;;;;5030420;28;20053;-92
2021/11/26 07:45:14;;;;;;;25.48;7.03;;;4.30;99.90;;;;;;5030129;28;20026;-93
2021/11/26 07:47:41;;;;;;;26.90;7.28;;;4.30;99.90;;;;;;5033180;28;20033;-93
2021/11/26 07:50:08;;;;;;;13.63;5.57;;;4.30;99.90;;;;;;5032367;28;20513;-93
2021/11/26 07:52:35;;;;;;;19.60;6.88;;;4.30;99.90;;;;;;5037794;28;20120;-93
2021/11/26 07:55:00;;;;;;;25.33;6.70;;;4.30;99.90;;;;;;5024733;28;20061;-93
2021/11/26 07:57:26;;;;;;;24.30;6.63;;;4.30;99.90;;;;;;5042481;28;20564;-92
2021/11/26 07:59:52;;;;;;;22.92;5.97;;;4.30;99.90;;;;;;4999634;28;20042;-91
2021/11/26 08:02:17;;;;;;;26.98;6.28;;;4.30;99.90;;;;;;5021127;28;20016;-93
2021/11/26 08:04:43;;;;;;;24.10;5.95;;;4.30;99.90;;;;;;5025910;28;20052;-90
2021/11/26 08:07:09;;;;;;;25.55;6.30;;;4.30;99.90;;;;;;5034319;28;20061;-92
2021/11/26 08:09:35;;;;;;;23.95;6.13;;;4.40;99.90;;;;;;5034682;28;20120;-92
2021/11/26 08:12:00;;;;;;;20.90;4.88;;;4.40;99.90;;;;;;5030004;28;20116;-93
2021/11/26 08:14:26;;;;;;;20.02;5.05;;;4.50;99.90;;;;;;5033587;28;20044;-92
2021/11/26 08:16:54;;;;;;;21.85;5.30;;;4.50;99.90;;;;;;5019330;28;20026;-91
2021/11/26 08:19:21;;;;;;;24.38;5.05;;;4.50;99.90;;;;;;5017052;28;20096;-92
2021/11/26 08:21:48;;;;;;;18.13;5.25;;;4.50;99.90;;;;;;5031916;28;20017;-92
2021/11/26 08:24:14;;;;;;;20.27;4.43;;;4.50;99.90;;;;;;5030734;28;20112;-93
2021/11/26 08:26:41;;;;;;;24.08;5.28;;;4.60;99.90;;;;;;5025950;28;20057;-92
2021/11/26 08:29:08;;;;;;;24.13;6.38;;;4.60;99.90;;;;;;5026100;28;20740;-92
2021/11/26 08:31:34;;;;;;;21.50;5.10;;;4.60;99.90;;;;;;5021469;28;20618;-92
2021/11/26 08:33:59;;;;;;;19.00;4.93;;;4.60;99.90;;;;;;5032982;28;20033;-91
2021/11/26 08:36:26;;;;;;;24.73;5.32;;;4.60;99.90;;;;;;5032460;28;20026;-92
2021/11/26 08:38:52;;;;;;;17.13;4.28;;;4.60;99.90;;;;;;5027862;28;20057;-90
2021/11/26 08:41:18;;;;;;;18.90;4.57;;;4.70;99.90;;;;;;5027876;28;20454;-88
2021/11/26 08:43:44;;;;;;;17.60;4.25;;;4.70;99.90;;;;;;5012058;28;20187;-88
2021/11/26 08:46:12;;;;;;;26.80;4.88;;;4.70;99.90;;;;;;5037017;28;21776;-90
2021/11/26 08:48:37;;;;;;;22.45;4.70;;;4.70;99.90;;;;;;5020843;28;20504;-90
2021/11/26 08:51:03;;;;;;;25.42;5.90;;;4.70;99.90;;;;;;5033931;28;20395;-90
2021/11/26 08:53:30;;;;;;;24.88;5.40;;;4.70;99.90;;;;;;5016419;28;20037;-90
2021/11/26 08:55:56;;;;;;;23.73;6.07;;;4.70;99.90;;;;;;5022801;28;20031;-90
2021/11/26 08:58:22;;;;;;;19.75;5.63;;;4.80;99.90;;;;;;5025388;28;20120;-90
2021/11/26 09:00:48;;;;;;;22.23;4.97;;;4.80;99.90;;;;;;5024742;28;20029;-90
2021/11/26 09:03:15;;;;;;;23.50;5.68;;;4.80;99.90;;;;;;5033382;28;20021;-90
2021/11/26 09:05:41;;;;;;;17.98;4.68;;;4.80;99.90;;;;;;5034607;28;20032;-90
2021/11/26 09:08:13;;;;;;;17.70;4.90;;;4.80;99.90;;;;;;5024343;28;20124;-90
2021/11/26 09:10:40;;;;;;;29.23;6.78;;;4.80;99.90;;;;;;5014930;28;20509;-90
2021/11/26 09:13:06;;;;;;;15.65;4.80;;;4.90;99.90;;;;;;5027303;28;20030;-89
2021/11/26 09:15:33;;;;;;;22.90;6.05;;;4.90;99.90;;;;;;5028793;28;20034;-89
2021/11/26 09:17:59;;;;;;;16.50;4.38;;;4.90;99.90;;;;;;5041493;28;20124;-89
2021/11/26 09:20:25;;;;;;;17.40;3.85;;;4.90;99.90;;;;;;5031059;28;20167;-89
2021/11/26 09:22:51;;;;;;;20.33;5.00;;;5.00;99.90;;;;;;5027228;28;20021;-89
2021/11/26 09:25:17;;;;;;;17.75;4.72;;;4.90;99.90;;;;;;5021355;28;20168;-88
2021/11/26 09:27:43;;;;;;;23.02;4.93;;;5.00;99.90;;;;;;5039317;28;20516;-88
2021/11/26 09:30:12;;;;;;;19.15;4.10;;;4.90;99.90;;;;;;5033445;28;20033;-89
2021/11/26 09:32:37;;;;;;;16.27;3.80;;;4.90;99.90;;;;;;5033918;28;20026;-89
2021/11/26 09:35:04;;;;;;;16.38;3.72;;;4.90;99.90;;;;;;5030506;28;20573;-88
2021/11/26 09:37:30;;;;;;;19.50;4.57;;;4.80;99.90;;;;;;5019874;28;20057;-90
2021/11/26 09:39:56;;;;;;;15.10;3.78;;;4.80;99.90;;;;;;5026375;28;20553;-88
2021/11/26 09:42:22;;;;;;;11.15;3.22;;;4.80;99.90;;;;;;5035811;28;20036;-89
2021/11/26 09:44:49;;;;;;;11.70;3.30;;;4.70;99.90;;;;;;5036826;28;20037;-88
2021/11/26 09:47:14;;;;;;;12.90;3.30;;;4.80;99.90;;;;;;5033748;28;20029;-88
2021/11/26 09:49:40;;;;;;;12.88;4.05;;;4.80;99.90;;;;;;5025715;28;20037;-88
2021/11/26 09:52:06;;;;;;;12.45;3.38;;;5.00;99.90;;;;;;5035135;28;20021;-88
2021/11/26 09:54:44;;;;;;;12.25;2.70;;;5.10;99.90;;;;;;5036742;28;20042;-88
2021/11/26 09:57:10;;;;;;;17.83;3.92;;;5.10;99.90;;;;;;5035553;28;20032;-88
2021/11/26 09:59:39;;;;;;;16.67;2.90;;;5.20;99.90;;;;;;5031721;28;20133;-89
2021/11/26 10:02:09;;;;;;;14.40;3.17;;;5.20;99.90;;;;;;5032815;28;20033;-88
2021/11/26 10:04:35;;;;;;;15.00;2.97;;;5.30;99.90;;;;;;5025943;28;20045;-87
2021/11/26 10:07:02;;;;;;;14.50;4.28;;;5.40;99.90;;;;;;5036181;28;20037;-88
2021/11/26 10:09:28;;;;;;;13.23;2.88;;;5.40;99.90;;;;;;5030110;28;20025;-88
2021/11/26 10:11:56;;;;;;;12.55;2.97;;;5.40;99.90;;;;;;5033830;28;20604;-87
2021/11/26 10:14:23;;;;;;;11.13;2.75;;;5.50;99.90;;;;;;5034460;28;20037;-88
2021/11/26 10:16:54;;;;;;;12.82;2.83;;;5.60;99.90;;;;;;5023641;28;20029;-88
2021/11/26 10:19:35;;;;;;;12.75;3.15;;;5.70;99.90;;;;;;5030142;28;20036;-89
2021/11/26 10:22:22;;;;;;;14.52;3.08;;;5.80;99.90;;;;;;5035377;28;20460;-89
2021/11/26 10:25:17;;;;;;;10.35;2.70;;;6.00;99.90;;;;;;5030729;28;20056;-89
2021/11/26 10:27:55;;;;;;;9.75;2.60;;;6.10;99.90;;;;;;5036175;28;20032;-88
2021/11/26 10:30:20;;;;;;;13.98;2.97;;;6.10;99.90;;;;;;5036253;28;20030;-88
2021/11/26 10:33:03;;;;;;;10.98;3.20;;;6.10;99.90;;;;;;5028352;28;20088;-88
2021/11/26 10:35:33;;;;;;;14.73;3.08;;;6.10;99.90;;;;;;5047564;28;20033;-89
2021/11/26 10:38:04;;;;;;;9.35;2.47;;;6.10;99.90;;;;;;5031208;28;20053;-87
2021/11/26 10:40:33;;;;;;;10.43;2.45;;;6.10;99.90;;;;;;5024660;28;20033;-89
2021/11/26 10:43:03;;;;;;;12.48;2.63;;;6.20;99.90;;;;;;5030543;28;20037;-90
2021/11/26 10:45:47;;;;;;;9.93;1.92;;;6.10;99.90;;;;;;5035640;28;20078;-88
2021/11/26 10:51:03;;;;;;;9.68;2.50;;;6.00;99.90;;;;;;5033439;28;20025;-90
2021/11/26 10:58:50;;;;;;;9.68;1.83;;;6.10;99.90;;;;;;5042063;28;20136;-90
2021/11/26 11:01:16;;;;;;;10.38;2.50;;;6.10;99.90;;;;;;5029046;28;20497;-89
2021/11/26 11:03:44;;;;;;;9.18;1.98;;;6.10;99.90;;;;;;5033869;28;20022;-89
2021/11/26 11:06:21;;;;;;;12.35;2.92;;;6.10;99.90;;;;;;5032502;28;20401;-90
2021/11/26 11:09:06;;;;;;;8.65;2.05;;;6.10;99.90;;;;;;5035068;28;20022;-89
2021/11/26 11:11:32;;;;;;;14.68;2.38;;;6.10;99.90;;;;;;5030459;28;20026;-89
2021/11/26 11:14:03;;;;;;;12.95;2.40;;;6.10;99.90;;;;;;5047469;28;20154;-88
2021/11/26 11:16:29;;;;;;;17.60;2.80;;;6.10;99.90;;;;;;5035265;28;20025;-89
2021/11/26 11:18:54;;;;;;;12.20;2.75;;;6.10;99.90;;;;;;5035298;28;20108;-89
2021/11/26 11:21:20;;;;;;;8.65;1.88;;;6.20;99.90;;;;;;5033552;28;20366;-88
2021/11/26 11:23:49;;;;;;;13.35;2.95;;;6.20;99.90;;;;;;5031348;28;20044;-89
2021/11/26 11:26:15;;;;;;;12.15;3.00;;;6.20;99.90;;;;;;5031143;28;20033;-88
2021/11/26 11:28:41;;;;;;;10.90;2.50;;;6.20;99.90;;;;;;5019531;28;20040;-89
2021/11/26 11:31:07;;;;;;;9.35;1.80;;;6.20;99.90;;;;;;5044467;28;20018;-89
2021/11/26 11:33:33;;;;;;;13.75;2.33;;;6.20;99.90;;;;;;5032137;28;20037;-89
2021/11/26 11:36:01;;;;;;;13.43;2.28;;;6.30;99.90;;;;;;5038413;28;20126;-89
2021/11/26 11:38:27;;;;;;;9.98;2.05;;;6.30;99.90;;;;;;5021413;28;20421;-89
2021/11/26 11:41:06;;;;;;;11.20;2.25;;;6.20;99.90;;;;;;5030813;28;20022;-90
2021/11/26 11:43:47;;;;;;;8.80;1.85;;;6.20;99.90;;;;;;5028641;28;20046;-90
2021/11/26 11:46:14;;;;;;;14.27;2.47;;;6.20;99.90;;;;;;5029325;28;20494;-89
2021/11/26 11:48:49;;;;;;;10.05;2.08;;;6.20;99.90;;;;;;5035257;28;20119;-90
2021/11/26 11:51:24;;;;;;;7.32;1.67;;;6.20;99.90;;;;;;5033217;28;20496;-90
2021/11/26 11:54:07;;;;;;;9.27;1.83;;;6.20;99.90;;;;;;5040775;28;20033;-90
2021/11/26 11:56:52;;;;;;;10.38;1.63;;;6.20;99.90;;;;;;5022697;28;20470;-91
2021/11/26 11:59:35;;;;;;;6.35;1.90;;;6.10;99.90;;;;;;5034730;28;20033;-91
2021/11/26 12:02:03;;;;;;;13.05;2.03;;;6.10;99.90;;;;;;5032704;28;20029;-91
2021/11/26 12:04:36;;;;;;;7.55;2.22;;;6.00;99.90;;;;;;5033990;28;20106;-90
2021/11/26 12:07:02;;;;;;;6.68;1.77;;;5.90;99.90;;;;;;5034568;28;20036;-90
2021/11/26 12:09:30;;;;;;;6.45;1.30;;;5.90;99.90;;;;;;5028858;28;20026;-92
2021/11/26 12:12:05;;;;;;;7.03;1.75;;;5.90;99.90;;;;;;5036465;28;20064;-90
2021/11/26 12:14:30;;;;;;;11.48;1.90;;;5.80;99.90;;;;;;5035118;28;20043;-91
2021/11/26 12:17:15;;;;;;;8.95;1.63;;;5.80;99.90;;;;;;5036835;28;20428;-92
2021/11/26 12:19:42;;;;;;;7.00;1.40;;;5.70;99.90;;;;;;5022775;28;20512;-91
2021/11/26 12:22:15;;;;;;;6.28;1.88;;;5.70;99.90;;;;;;5032209;28;20229;-91
2021/11/26 12:24:44;;;;;;;;;;;5.60;99.90;;;;;;5033841;28;20030;-92
2021/11/26 12:27:24;;;;;;;9.88;2.38;;;5.50;99.90;;;;;;5039248;28;19941;-92
2021/11/26 12:29:51;;;;;;;9.02;1.98;;;5.50;99.90;;;;;;5036516;28;20462;-93
2021/11/26 12:32:19;;;;;;;7.85;1.67;;;5.40;99.90;;;;;;5031606;28;20730;-93
2021/11/26 12:34:57;;;;;;;7.15;1.95;;;5.30;99.90;;;;;;5031729;28;20478;-91
2021/11/26 12:37:30;;;;;;;13.18;2.53;;;5.20;99.90;;;;;;5029533;28;20022;-92
2021/11/26 12:40:03;;;;;;;9.80;2.75;;;5.20;99.90;;;;;;5033216;28;20037;-92
2021/11/26 12:42:28;;;;;;;6.55;1.88;;;5.10;99.90;;;;;;5026557;28;20525;-92
2021/11/26 12:45:08;;;;;;;10.60;2.58;;;5.10;99.90;;;;;;5017517;28;20023;-93
2021/11/26 12:47:37;;;;;;;8.40;2.30;;;5.00;99.90;;;;;;5014114;28;20084;-92
2021/11/26 12:52:50;;;;;;;6.28;2.10;;;4.90;99.90;;;;;;5011303;28;20459;-93
2021/11/26 12:55:17;;;;;;;6.15;2.50;;;4.90;99.90;;;;;;5012802;28;20038;-92
2021/11/26 12:57:51;;;;;;;13.38;2.70;;;4.80;99.90;;;;;;5030154;28;20041;-92
2021/11/26 13:00:17;;;;;;;13.43;2.40;;;4.80;99.90;;;;;;5029558;28;20022;-94
2021/11/26 13:02:42;;;;;;;10.88;3.60;;;4.70;99.90;;;;;;5022784;28;20018;-91